Time;durP1;ratioP1;P1;durP2;ratioP2;P2;SDS_P1;SDS_P2;PMS_P1;PMS_P2;Temp;Humidity;BMP_temperature;BMP_pressure;BME280_temperature;BME280_humidity;BME280_pressure;Samples;Min_cycle;Max_cycle;Signal;HPM_P1;HPM_P2
2023/04/09 00:01:03;;;;;;;;;;;10.10;99.90;;;;;;5110081;28;1101;-68
2023/04/09 00:03:29;;;;;;;;;;;10.00;99.90;;;;;;5100424;28;1193;-68
2023/04/09 00:05:55;;;;;;;;;;;10.00;99.90;;;;;;5109794;28;1104;-68
2023/04/09 00:08:22;;;;;;;;;;;10.00;99.90;;;;;;5109589;28;1600;-68
2023/04/09 00:10:49;;;;;;;;;;;9.90;99.90;;;;;;5109801;28;1973;-69
2023/04/09 00:13:15;;;;;;;;;;;10.00;99.90;;;;;;5121263;27;1180;-68
2023/04/09 00:15:41;;;;;;;;;;;10.00;99.90;;;;;;5108606;28;1239;-68
2023/04/09 00:18:07;;;;;;;;;;;10.00;99.90;;;;;;5110219;28;1139;-68
2023/04/09 00:20:32;;;;;;;;;;;10.00;99.90;;;;;;5109935;28;1079;-68
2023/04/09 00:22:58;;;;;;;;;;;10.00;99.90;;;;;;5108390;28;1176;-68
2023/04/09 00:25:24;;;;;;;;;;;10.00;99.90;;;;;;5125526;27;1091;-68
2023/04/09 00:27:49;;;;;;;;;;;10.00;99.90;;;;;;5110117;28;1089;-68
2023/04/09 00:30:15;;;;;;;;;;;10.00;99.90;;;;;;5107881;28;1980;-68
2023/04/09 00:32:42;;;;;;;;;;;10.00;99.90;;;;;;5090840;28;1233;-68
2023/04/09 00:35:08;;;;;;;;;;;10.00;99.90;;;;;;5109516;28;1171;-68
2023/04/09 00:37:34;;;;;;;;;;;10.10;99.90;;;;;;5108794;28;1116;-68
2023/04/09 00:40:00;;;;;;;;;;;10.10;99.90;;;;;;5109081;28;1104;-68
2023/04/09 00:42:26;;;;;;;;;;;10.60;99.90;;;;;;5109937;28;1171;-68
2023/04/09 00:44:51;;;;;;;;;;;10.10;99.90;;;;;;5090443;28;1168;-68
2023/04/09 00:47:17;;;;;;;;;;;10.10;99.90;;;;;;5109670;28;1156;-68
2023/04/09 00:49:43;;;;;;;;;;;10.10;99.90;;;;;;5104241;28;1906;-68
2023/04/09 00:52:09;;;;;;;;;;;10.10;99.90;;;;;;5108732;28;1101;-68
2023/04/09 00:54:35;;;;;;;;;;;10.10;99.90;;;;;;5109570;28;1222;-68
2023/04/09 00:57:02;;;;;;;;;;;10.10;99.90;;;;;;5109732;28;1156;-68
2023/04/09 00:59:27;;;;;;;;;;;10.00;99.90;;;;;;5108035;28;1153;-68
2023/04/09 01:01:53;;;;;;;;;;;10.10;99.90;;;;;;5109420;28;1120;-68
2023/04/09 01:04:19;;;;;;;;;;;10.10;99.90;;;;;;5127619;28;1107;-68
2023/04/09 01:06:50;;;;;;;;;;;10.10;99.90;;;;;;5125137;28;1301;-68
2023/04/09 01:09:20;;;;;;;;;;;10.10;99.90;;;;;;5109519;28;1980;-68
2023/04/09 01:11:46;;;;;;;;;;;10.10;99.90;;;;;;5090648;28;1089;-68
2023/04/09 01:14:20;;;;;;;;;;;10.10;99.90;;;;;;5091257;28;1123;-68
2023/04/09 01:16:49;;;;;;;;;;;10.00;99.90;;;;;;5108908;28;1088;-68
2023/04/09 01:19:25;;;;;;;;;;;10.00;99.90;;;;;;5095290;28;1120;-68
2023/04/09 01:21:51;;;;;;;;;;;10.10;99.90;;;;;;5109014;28;1109;-68
2023/04/09 01:24:41;;;;;;;;;;;10.10;99.90;;;;;;5090519;28;1136;-68
2023/04/09 01:27:09;;;;;;;;;;;10.10;99.90;;;;;;5089991;28;1176;-68
2023/04/09 01:29:52;;;;;;;;;;;10.10;99.90;;;;;;5090661;28;1914;-68
2023/04/09 01:32:19;;;;;;;;;;;10.10;99.90;;;;;;5109278;28;1140;-68
2023/04/09 01:34:46;;;;;;;;;;;10.10;99.90;;;;;;5089849;28;1133;-68
2023/04/09 01:37:13;;;;;;;;;;;10.10;99.90;;;;;;5124528;28;1347;-68
2023/04/09 01:39:39;;;;;;;;;;;10.00;99.90;;;;;;5090988;28;986;-68
2023/04/09 01:42:09;;;;;;;;;;;10.00;99.90;;;;;;5090050;28;1093;-68
2023/04/09 01:44:37;;;;;;;;;;;10.00;99.90;;;;;;5107497;28;1101;-68
2023/04/09 01:47:03;;;;;;;;;;;10.00;99.90;;;;;;5112312;28;1058;-68
2023/04/09 01:49:29;;;;;;;;;;;10.00;99.90;;;;;;5112991;28;1972;-68
2023/04/09 01:51:56;;;;;;;;;;;10.00;99.90;;;;;;5096045;28;1134;-68
2023/04/09 01:54:21;;;;;;;;;;;10.00;99.90;;;;;;5112137;28;1167;-68
2023/04/09 01:56:47;;;;;;;;;;;10.00;99.90;;;;;;5112844;28;1179;-68
2023/04/09 01:59:13;;;;;;;;;;;10.00;99.90;;;;;;5094244;28;1117;-68
2023/04/09 02:01:44;;;;;;;;;;;10.00;99.90;;;;;;5102358;28;1205;-68
2023/04/09 02:04:12;;;;;;;;;;;9.90;99.90;;;;;;5128410;27;1111;-68
2023/04/09 02:06:43;;;;;;;;;;;9.90;99.90;;;;;;5112461;28;1311;-68
2023/04/09 02:09:11;;;;;;;;;;;9.90;99.90;;;;;;5092764;28;1300;-68
2023/04/09 02:11:38;;;;;;;;;;;9.90;99.90;;;;;;5112571;28;1167;-68
2023/04/09 02:14:07;;;;;;;;;;;9.90;99.90;;;;;;5093954;28;1123;-68
2023/04/09 02:16:32;;;;;;;;;;;9.90;99.90;;;;;;5093282;28;1868;-68
2023/04/09 02:19:00;;;;;;;;;;;9.90;99.90;;;;;;5083466;28;1111;-68
2023/04/09 02:21:26;;;;;;;;;;;9.90;99.90;;;;;;5093509;28;1162;-69
2023/04/09 02:23:52;;;;;;;;;;;9.90;99.90;;;;;;5093274;28;1148;-68
2023/04/09 02:26:17;;;;;;;;;;;10.00;99.90;;;;;;5111685;28;1093;-68
2023/04/09 02:28:43;;;;;;;;;;;9.90;99.90;;;;;;5111965;28;1100;-68
2023/04/09 02:31:10;;;;;;;;;;;10.00;99.90;;;;;;5111438;28;1976;-68
2023/04/09 02:33:35;;;;;;;;;;;10.00;99.90;;;;;;5093858;28;1156;-68
2023/04/09 02:36:01;;;;;;;;;;;9.90;99.90;;;;;;5098953;28;1161;-68
2023/04/09 02:38:27;;;;;;;;;;;10.00;99.90;;;;;;5094670;28;1239;-68
2023/04/09 02:40:52;;;;;;;;;;;10.00;99.90;;;;;;5111812;28;1175;-68
2023/04/09 02:43:18;;;;;;;;;;;9.90;99.90;;;;;;5110892;28;1116;-68
2023/04/09 02:45:44;;;;;;;;;;;9.90;99.90;;;;;;5132064;27;1035;-68
2023/04/09 02:48:10;;;;;;;;;;;9.90;99.90;;;;;;5093729;28;947;-68
2023/04/09 02:50:35;;;;;;;;;;;9.90;99.90;;;;;;5126454;27;1917;-68
2023/04/09 02:53:02;;;;;;;;;;;9.90;99.90;;;;;;5092548;28;1461;-68
2023/04/09 02:55:27;;;;;;;;;;;9.90;99.90;;;;;;5102021;28;1165;-68
2023/04/09 02:57:53;;;;;;;;;;;9.90;99.90;;;;;;5092574;28;1013;-68
2023/04/09 03:00:19;;;;;;;;;;;9.90;99.90;;;;;;5093446;28;1120;-68
2023/04/09 03:02:45;;;;;;;;;;;9.90;99.90;;;;;;5081626;28;1101;-68
2023/04/09 03:05:10;;;;;;;;;;;9.90;99.90;;;;;;5075458;28;1455;-68
2023/04/09 03:07:36;;;;;;;;;;;9.90;99.90;;;;;;5111230;28;1310;-68
2023/04/09 03:10:02;;;;;;;;;;;9.90;99.90;;;;;;5111301;28;1901;-68
2023/04/09 03:12:27;;;;;;;;;;;9.90;99.90;;;;;;5115271;27;1183;-68
2023/04/09 03:14:53;;;;;;;;;;;9.90;99.90;;;;;;5113382;27;1144;-68
2023/04/09 03:17:19;;;;;;;;;;;9.90;99.90;;;;;;5126690;27;961;-68
2023/04/09 03:19:45;;;;;;;;;;;9.90;99.90;;;;;;5109927;28;1151;-68
2023/04/09 03:22:11;;;;;;;;;;;9.90;99.90;;;;;;5092374;28;1637;-68
2023/04/09 03:24:37;;;;;;;;;;;9.80;99.90;;;;;;5075588;28;1173;-68
2023/04/09 03:27:05;;;;;;;;;;;9.80;99.90;;;;;;5074897;28;1316;-68
2023/04/09 03:29:31;;;;;;;;;;;9.80;99.90;;;;;;5110143;28;1906;-68
2023/04/09 03:31:58;;;;;;;;;;;9.80;99.90;;;;;;5110748;28;1041;-67
2023/04/09 03:34:24;;;;;;;;;;;9.80;99.90;;;;;;5110362;28;990;-68
2023/04/09 03:36:53;;;;;;;;;;;9.80;99.90;;;;;;5091674;28;1191;-68
2023/04/09 03:39:30;;;;;;;;;;;9.70;99.90;;;;;;5125834;27;1014;-68
2023/04/09 03:41:57;;;;;;;;;;;9.70;99.90;;;;;;5110586;28;1088;-68
2023/04/09 03:44:23;;;;;;;;;;;9.60;99.90;;;;;;5091998;28;1120;-68
2023/04/09 03:47:02;;;;;;;;;;;9.60;99.90;;;;;;5091172;28;1152;-68
2023/04/09 03:49:28;;;;;;;;;;;9.60;99.90;;;;;;5075193;28;2165;-68
2023/04/09 03:51:57;;;;;;;;;;;9.50;99.90;;;;;;5126246;27;1135;-68
2023/04/09 03:54:30;;;;;;;;;;;9.50;99.90;;;;;;5091181;28;1524;-68
2023/04/09 03:56:56;;;;;;;;;;;9.50;99.90;;;;;;5109110;28;1843;-68
2023/04/09 03:59:23;;;;;;;;;;;9.40;99.90;;;;;;5091642;28;1160;-68
2023/04/09 04:01:49;;;;;;;;;;;9.40;99.90;;;;;;5091396;28;1124;-68
2023/04/09 04:04:15;;;;;;;;;;;9.40;99.90;;;;;;5121728;27;1242;-67
2023/04/09 04:06:46;;;;;;;;;;;9.40;99.90;;;;;;5091382;28;1410;-68
2023/04/09 04:09:23;;;;;;;;;;;9.30;99.90;;;;;;5090792;28;1910;-68
2023/04/09 04:11:55;;;;;;;;;;;9.40;99.90;;;;;;5091581;28;1081;-68
2023/04/09 04:14:23;;;;;;;;;;;9.30;99.90;;;;;;5117115;27;1247;-68
2023/04/09 04:16:55;;;;;;;;;;;9.30;99.90;;;;;;5091181;28;1111;-68
2023/04/09 04:19:25;;;;;;;;;;;9.30;99.90;;;;;;5091643;28;1101;-68
2023/04/09 04:21:51;;;;;;;;;;;9.30;99.90;;;;;;5090601;28;1101;-68
2023/04/09 04:24:17;;;;;;;;;;;9.30;99.90;;;;;;5110046;28;1238;-68
2023/04/09 04:26:43;;;;;;;;;;;9.30;99.90;;;;;;5091220;28;1225;-68
2023/04/09 04:29:12;;;;;;;;;;;9.20;99.90;;;;;;5090822;28;1335;-68
2023/04/09 04:31:52;;;;;;;;;;;9.20;99.90;;;;;;5074070;28;1117;-68
2023/04/09 04:34:21;;;;;;;;;;;9.20;99.90;;;;;;5091871;28;1722;-68
2023/04/09 04:36:54;;;;;;;;;;;9.20;99.90;;;;;;5090248;28;1596;-68
2023/04/09 04:39:20;;;;;;;;;;;9.10;99.90;;;;;;5092007;28;1037;-68
2023/04/09 04:41:51;;;;;;;;;;;9.10;99.90;;;;;;5125892;27;1148;-68
2023/04/09 04:44:22;;;;;;;;;;;9.10;99.90;;;;;;5090789;28;1148;-68
2023/04/09 04:46:53;;;;;;;;;;;9.10;99.90;;;;;;5091684;28;1140;-67
2023/04/09 04:49:18;;;;;;;;;;;9.10;99.90;;;;;;5077360;28;2008;-68
2023/04/09 04:51:46;;;;;;;;;;;9.00;99.90;;;;;;5073553;28;1346;-68
2023/04/09 04:54:14;;;;;;;;;;;9.00;99.90;;;;;;5071100;28;1880;-68
2023/04/09 04:56:46;;;;;;;;;;;9.00;99.90;;;;;;5090347;28;1092;-68
2023/04/09 04:59:20;;;;;;;;;;;9.00;99.90;;;;;;5074343;28;1148;-68
2023/04/09 05:01:56;;;;;;;;;;;9.00;99.90;;;;;;5091338;28;1137;-68
2023/04/09 05:04:22;;;;;;;;;;;9.00;99.90;;;;;;5124266;28;1174;-68
2023/04/09 05:06:48;;;;;;;;;;;9.00;99.90;;;;;;5108811;28;1441;-68
2023/04/09 05:09:18;;;;;;;;;;;9.00;99.90;;;;;;5091180;28;2023;-68
2023/04/09 05:11:56;;;;;;;;;;;9.00;99.90;;;;;;5090590;28;1085;-68
2023/04/09 05:14:22;;;;;;;;;;;9.10;99.90;;;;;;5092487;28;1150;-68
2023/04/09 05:16:48;;;;;;;;;;;9.10;99.90;;;;;;5105572;28;1163;-68
2023/04/09 05:19:15;;;;;;;;;;;9.10;99.90;;;;;;5094121;28;1108;-68
2023/04/09 05:21:42;;;;;;;;;;;9.10;99.90;;;;;;5095205;28;1073;-68
2023/04/09 05:24:08;;;;;;;;;;;9.10;99.90;;;;;;5096223;28;1154;-68
2023/04/09 05:26:35;;;;;;;;;;;9.20;99.90;;;;;;5112225;28;1147;-68
2023/04/09 05:29:01;;;;;;;;;;;9.20;99.90;;;;;;5094944;28;1120;-68
2023/04/09 05:31:27;;;;;;;;;;;9.20;99.90;;;;;;5094808;28;1980;-68
2023/04/09 05:34:00;;;;;;;;;;;9.20;99.90;;;;;;5102260;28;1195;-68
2023/04/09 05:36:36;;;;;;;;;;;9.20;99.90;;;;;;5094702;28;1101;-68
2023/04/09 05:39:02;;;;;;;;;;;9.30;99.90;;;;;;5094324;28;1107;-69
2023/04/09 05:41:29;;;;;;;;;;;9.30;99.90;;;;;;5097026;28;1164;-68
2023/04/09 05:44:17;;;;;;;;;;;9.40;99.90;;;;;;5094948;28;930;-68
2023/04/09 05:46:43;;;;;;;;;;;9.40;99.90;;;;;;5114134;27;1049;-68
2023/04/09 05:49:11;;;;;;;;;;;9.50;99.90;;;;;;5094174;28;1307;-68
2023/04/09 05:51:38;;;;;;;;;;;9.50;99.90;;;;;;5094026;28;1914;-68
2023/04/09 05:54:05;;;;;;;;;;;9.50;99.90;;;;;;5093731;28;1128;-68
2023/04/09 05:56:35;;;;;;;;;;;9.60;99.90;;;;;;5094098;28;1131;-68
2023/04/09 05:59:01;;;;;;;;;;;9.60;99.90;;;;;;5096415;27;1202;-68
2023/04/09 06:01:26;;;;;;;;;;;9.60;99.90;;;;;;5144534;27;1297;-68
2023/04/09 06:03:52;;;;;;;;;;;9.60;99.90;;;;;;5112199;28;1167;-67
2023/04/09 06:06:18;;;;;;;;;;;9.60;99.90;;;;;;5094607;28;1113;-68
2023/04/09 06:08:43;;;;;;;;;;;9.70;99.90;;;;;;5079763;28;1632;-68
2023/04/09 06:11:10;;;;;;;;;;;9.70;99.90;;;;;;5112236;28;1917;-68
2023/04/09 06:13:36;;;;;;;;;;;9.70;99.90;;;;;;5094098;28;1151;-68
2023/04/09 06:16:03;;;;;;;;;;;9.70;99.90;;;;;;5093595;28;1151;-68
2023/04/09 06:18:29;;;;;;;;;;;9.70;99.90;;;;;;5105941;28;1154;-68
2023/04/09 06:21:04;;;;;;;;;;;9.70;99.90;;;;;;5112047;28;1179;-68
2023/04/09 06:23:31;;;;;;;;;;;9.80;99.90;;;;;;5111810;28;1168;-68
2023/04/09 06:25:56;;;;;;;;;;;9.80;99.90;;;;;;5111433;28;1108;-68
2023/04/09 06:28:22;;;;;;;;;;;9.90;99.90;;;;;;5110336;28;1179;-68
2023/04/09 06:30:48;;;;;;;;;;;9.80;99.90;;;;;;5112199;28;1905;-68
2023/04/09 06:33:14;;;;;;;;;;;9.90;99.90;;;;;;5111834;28;1187;-69
2023/04/09 06:35:39;;;;;;;;;;;9.90;99.90;;;;;;5110084;28;1137;-68
2023/04/09 06:38:05;;;;;;;;;;;10.00;99.90;;;;;;5100252;27;1270;-68
2023/04/09 06:40:31;;;;;;;;;;;9.90;99.90;;;;;;5119701;27;1262;-68
2023/04/09 06:42:57;;;;;;;;;;;10.00;99.90;;;;;;5110031;27;1092;-68
2023/04/09 06:45:28;;;;;;;;;;;10.00;99.90;;;;;;5096499;28;1164;-68
2023/04/09 06:47:54;;;;;;;;;;;10.00;99.90;;;;;;5113008;27;1206;-68
2023/04/09 06:50:20;;;;;;;;;;;9.90;99.90;;;;;;5100268;28;1917;-68
2023/04/09 06:52:46;;;;;;;;;;;9.90;99.90;;;;;;5111725;27;1258;-68
2023/04/09 06:55:11;;;;;;;;;;;9.90;99.90;;;;;;5111074;28;1266;-68
2023/04/09 06:57:38;;;;;;;;;;;10.00;99.90;;;;;;5113084;27;1223;-68
2023/04/09 07:00:03;;;;;;;;;;;10.00;99.90;;;;;;5111673;27;1234;-69
2023/04/09 07:02:29;;;;;;;;;;;10.00;99.90;;;;;;5112715;27;1149;-68
2023/04/09 07:04:55;;;;;;;;;;;10.10;99.90;;;;;;5112543;27;1528;-69
2023/04/09 07:07:21;;;;;;;;;;;10.10;99.90;;;;;;5125204;27;1318;-69
2023/04/09 07:09:48;;;;;;;;;;;10.10;99.90;;;;;;5110485;28;1983;-68
2023/04/09 07:12:13;;;;;;;;;;;10.10;99.90;;;;;;5113512;27;1077;-69
2023/04/09 07:14:39;;;;;;;;;;;10.10;99.90;;;;;;5131972;27;1103;-69
2023/04/09 07:17:05;;;;;;;;;;;10.00;99.90;;;;;;5131510;27;1142;-69
2023/04/09 07:19:30;;;;;;;;;;;10.00;99.90;;;;;;5099742;28;1213;-68
2023/04/09 07:21:56;;;;;;;;;;;10.10;99.90;;;;;;5111185;28;1127;-68
2023/04/09 07:24:21;;;;;;;;;;;10.10;99.90;;;;;;5092436;28;1144;-68
2023/04/09 07:26:49;;;;;;;;;;;10.20;99.90;;;;;;5110319;28;1112;-69
2023/04/09 07:29:14;;;;;;;;;;;10.30;99.90;;;;;;5110339;28;1113;-69
2023/04/09 07:31:40;;;;;;;;;;;10.40;99.90;;;;;;5109962;28;1922;-70
2023/04/09 07:34:06;;;;;;;;;;;10.50;99.90;;;;;;5110755;28;1016;-69
2023/04/09 07:36:31;;;;;;;;;;;10.60;99.90;;;;;;5110486;28;1104;-68
2023/04/09 07:38:57;;;;;;;;;;;10.70;99.90;;;;;;5109747;28;1049;-69
2023/04/09 07:41:23;;;;;;;;;;;10.80;99.90;;;;;;5111232;27;1089;-69
2023/04/09 07:43:48;;;;;;;;;;;10.90;99.90;;;;;;5120258;27;1235;-69
2023/04/09 07:46:21;;;;;;;;;;;11.00;99.90;;;;;;5116141;27;1159;-68
2023/04/09 07:48:48;;;;;;;;;;;11.10;99.90;;;;;;5110521;27;1349;-68
2023/04/09 07:51:14;;;;;;;;;;;11.20;99.90;;;;;;5112714;27;1980;-69
2023/04/09 07:53:40;;;;;;;;;;;11.20;99.90;;;;;;5110174;27;1226;-68
2023/04/09 07:56:06;;;;;;;;;;;11.20;99.90;;;;;;5111899;27;1191;-68
2023/04/09 07:58:31;;;;;;;;;;;11.30;99.90;;;;;;5109862;28;1274;-68
2023/04/09 08:00:57;;;;;;;;;;;11.40;99.90;;;;;;5108655;28;1259;-69
2023/04/09 08:03:23;;;;;;;;;;;11.60;99.90;;;;;;5109201;28;1250;-68
2023/04/09 08:05:49;;;;;;;;;;;11.60;99.90;;;;;;5127792;27;1100;-69
2023/04/09 08:08:14;;;;;;;;;;;11.60;99.90;;;;;;5097156;28;1627;-69
2023/04/09 08:10:40;;;;;;;;;;;11.80;99.90;;;;;;5111296;27;1905;-68
2023/04/09 08:13:06;;;;;;;;;;;11.90;99.90;;;;;;5112144;27;1289;-68
2023/04/09 08:15:31;;;;;;;;;;;11.90;99.90;;;;;;5109084;28;1199;-68
2023/04/09 08:17:57;;;;;;;;;;;11.90;99.90;;;;;;5106322;28;3637;-69
2023/04/09 08:20:23;;;;;;;;;;;;;;;;;;5109809;27;3982;-68
2023/04/09 08:22:49;;;;;;;;;;;11.80;99.90;;;;;;5108708;28;1239;-68
2023/04/09 08:25:15;;;;;;;;;;;11.90;99.90;;;;;;5109991;27;3504;-68
2023/04/09 08:27:40;;;;;;;;;;;11.90;99.90;;;;;;5109359;28;1222;-68
2023/04/09 08:30:06;;;;;;;;;;;12.00;99.90;;;;;;5108864;28;1977;-68
2023/04/09 08:32:32;;;;;;;;;;;12.10;99.90;;;;;;5110494;27;1218;-68
2023/04/09 08:34:58;;;;;;;;;;;12.20;99.90;;;;;;5107308;27;1253;-68
2023/04/09 08:37:24;;;;;;;;;;;12.40;99.90;;;;;;5094348;28;3513;-68
2023/04/09 08:39:49;;;;;;;;;;;12.50;99.90;;;;;;5109278;27;1295;-68
2023/04/09 08:42:15;;;;;;;;;;;12.60;99.90;;;;;;5098445;28;1196;-68
2023/04/09 08:44:41;;;;;;;;;;;12.80;99.90;;;;;;5094624;28;1252;-69
2023/04/09 08:47:09;;;;;;;;;;;13.10;99.90;;;;;;5111247;27;1258;-69
2023/04/09 08:49:35;;;;;;;;;;;13.10;99.90;;;;;;5108792;28;1914;-68
2023/04/09 08:52:00;;;;;;;;;;;13.30;99.90;;;;;;5109936;28;1187;-69
2023/04/09 08:54:26;;;;;;;;;;;13.40;99.90;;;;;;5109618;27;1262;-68
2023/04/09 08:56:52;;;;;;;;;;;;;;;;;;5108475;28;1230;-69
2023/04/09 08:59:18;;;;;;;;;;;14.00;99.90;;;;;;5111675;28;1346;-68
2023/04/09 09:01:46;;;;;;;;;;;14.10;99.90;;;;;;5108963;28;1286;-68
2023/04/09 09:04:12;;;;;;;;;;;14.20;99.90;;;;;;5129222;27;3633;-68
2023/04/09 09:06:38;;;;;;;;;;;14.40;99.90;;;;;;5104884;28;3448;-69
2023/04/09 09:09:05;;;;;;;;;;;14.60;99.90;;;;;;5106776;28;3110;-69
2023/04/09 09:11:32;;;;;;;;;;;14.90;99.90;;;;;;5103818;28;1922;-69
2023/04/09 09:13:59;;;;;;;;;;;15.10;99.90;;;;;;5107294;28;1376;-69
2023/04/09 09:16:26;;;;;;;;;;;15.20;99.90;;;;;;5108905;28;1282;-69
2023/04/09 09:18:52;;;;;;;;;;;15.50;99.90;;;;;;5108028;28;1242;-69
2023/04/09 09:21:18;;;;;;;;;;;15.70;99.90;;;;;;5105916;28;1340;-69
2023/04/09 09:23:44;;;;;;;;;;;15.70;99.90;;;;;;5111567;28;1222;-69
2023/04/09 09:26:17;;;;;;;;;;;15.80;99.90;;;;;;5108520;28;1278;-69
2023/04/09 09:28:43;;;;;;;;;;;15.80;99.90;;;;;;5108631;28;1292;-68
2023/04/09 09:31:10;;;;;;;;;;;15.90;99.90;;;;;;5119616;28;1913;-69
2023/04/09 09:33:36;;;;;;;;;;;16.20;99.90;;;;;;5129681;28;1131;-70
2023/04/09 09:36:03;;;;;;;;;;;16.80;99.90;;;;;;5145332;27;1115;-69
2023/04/09 09:38:29;;;;;;;;;;;16.60;99.90;;;;;;5123254;28;1100;-69
2023/04/09 09:40:55;;;;;;;;;;;16.70;99.90;;;;;;5133233;27;1249;-69
2023/04/09 09:43:21;;;;;;;;;;;16.80;99.90;;;;;;5109343;28;1106;-69
2023/04/09 09:45:46;;;;;;;;;;;17.00;99.80;;;;;;5090193;28;1140;-69
2023/04/09 09:48:13;;;;;;;;;;;17.30;98.90;;;;;;5083921;28;1125;-69
2023/04/09 09:50:40;;;;;;;;;;;17.40;98.10;;;;;;5108651;28;1941;-69
2023/04/09 09:53:07;;;;;;;;;;;17.50;97.90;;;;;;5108132;28;1183;-69
2023/04/09 09:55:33;;;;;;;;;;;17.50;98.10;;;;;;5108715;28;1275;-72
2023/04/09 09:58:01;;;;;;;;;;;17.60;98.20;;;;;;5107879;28;1267;-73
2023/04/09 10:00:27;;;;;;;;;;;17.80;97.50;;;;;;5089961;28;1156;-73
2023/04/09 10:03:06;;;;;;;;;;;18.00;97.30;;;;;;5111699;27;1219;-72
2023/04/09 10:05:35;;;;;;;;;;;18.00;95.90;;;;;;5111766;28;1109;-74
2023/04/09 10:08:01;;;;;;;;;;;17.80;95.10;;;;;;5111676;28;1580;-71
2023/04/09 10:10:28;;;;;;;;;;;17.70;96.50;;;;;;5112663;28;1950;-70
2023/04/09 10:12:55;;;;;;;;;;;17.80;96.10;;;;;;5120579;27;1118;-71
2023/04/09 10:15:20;;;;;;;;;;;17.90;95.00;;;;;;5114584;27;1201;-71
2023/04/09 10:17:46;;;;;;;;;;;18.10;96.20;;;;;;5112488;28;1096;-71
2023/04/09 10:20:14;;;;;;;;;;;18.30;95.50;;;;;;5093794;28;1112;-71
2023/04/09 10:22:44;;;;;;;;;;;19.00;99.90;;;;;;5111466;28;1133;-71
2023/04/09 10:25:10;;;;;;;;;;;18.90;99.90;;;;;;5113510;27;1105;-71
2023/04/09 10:27:35;;;;;;;;;;;19.30;93.80;;;;;;5111109;28;1306;-71
2023/04/09 10:30:01;;;;;;;;;;;19.00;92.20;;;;;;5113060;27;1967;-71
2023/04/09 10:32:33;;;;;;;;;;;18.70;91.90;;;;;;5110957;28;1202;-71
2023/04/09 10:34:59;;;;;;;;;;;18.90;92.60;;;;;;5097613;28;1436;-71
2023/04/09 10:37:26;;;;;;;;;;;18.80;90.10;;;;;;5112558;27;1249;-70
2023/04/09 10:39:52;;;;;;;;;;;18.50;91.80;;;;;;5096701;28;1278;-71
2023/04/09 10:42:23;;;;;;;;;;;19.10;92.10;;;;;;5109903;28;1193;-71
2023/04/09 10:45:18;;;;;;;;;;;20.10;90.60;;;;;;5111042;27;1211;-71
2023/04/09 10:47:48;;;;;;;;;;;20.60;86.00;;;;;;5111984;27;1220;-71
2023/04/09 10:50:15;;;;;;;;;;;20.70;87.30;;;;;;5111378;27;1909;-71
2023/04/09 10:52:41;;;;;;;;;;;21.40;83.80;;;;;;5113026;27;1207;-71
2023/04/09 10:55:07;;;;;;;;;;;21.80;78.70;;;;;;5111596;27;1198;-71
2023/04/09 10:57:33;;;;;;;;;;;21.30;77.80;;;;;;5110968;27;1206;-71
2023/04/09 10:59:58;;;;;;;;;;;20.60;79.80;;;;;;5100421;28;1347;-71
2023/04/09 11:02:25;;;;;;;;;;;20.50;81.60;;;;;;5113454;27;1210;-71
2023/04/09 11:04:57;;;;;;;;;;;21.00;80.50;;;;;;5112622;27;1285;-71
2023/04/09 11:07:23;;;;;;;;;;;21.90;79.70;;;;;;5110633;27;1440;-71
2023/04/09 11:09:49;;;;;;;;;;;22.80;75.00;;;;;;5095607;28;1925;-71
2023/04/09 11:12:15;;;;;;;;;;;22.70;72.70;;;;;;5114453;27;1080;-71
2023/04/09 11:14:41;;;;;;;;;;;22.70;72.40;;;;;;5112704;27;1191;-71
2023/04/09 11:17:07;;;;;;;;;;;23.00;72.00;;;;;;5096994;28;1092;-71
2023/04/09 11:19:32;;;;;;;;;;;23.50;69.60;;;;;;5105174;28;3418;-71
2023/04/09 11:21:58;;;;;;;;;;;23.20;66.60;;;;;;5107810;28;3350;-71
2023/04/09 11:24:24;;;;;;;;;;;22.60;69.10;;;;;;5110120;28;1124;-71
2023/04/09 11:26:50;;;;;;;;;;;22.70;69.80;;;;;;5110887;28;1132;-71
2023/04/09 11:29:16;;;;;;;;;;;;;;;;;;5111102;28;1128;-71
2023/04/09 11:31:43;;;;;;;;;;;24.20;65.60;;;;;;5110043;28;1933;-71
2023/04/09 11:34:10;;;;;;;;;;;24.00;64.20;;;;;;5110104;28;1181;-71
2023/04/09 11:36:35;;;;;;;;;;;23.30;65.50;;;;;;5110482;28;1137;-71
2023/04/09 11:39:01;;;;;;;;;;;23.30;66.70;;;;;;5110233;28;1092;-71
2023/04/09 11:41:33;;;;;;;;;;;23.20;66.70;;;;;;5110604;28;1100;-71
2023/04/09 11:44:00;;;;;;;;;;;23.70;66.70;;;;;;5109942;28;1062;-71
2023/04/09 11:46:26;;;;;;;;;;;24.60;63.70;;;;;;5112078;27;1247;-71
2023/04/09 11:48:52;;;;;;;;;;;25.30;62.50;;;;;;5110030;28;1273;-71
2023/04/09 11:51:18;;;;;;;;;;;25.90;62.70;;;;;;5120521;27;1958;-71
2023/04/09 11:53:44;;;;;;;;;;;26.50;61.00;;;;;;5111034;27;1199;-70
2023/04/09 11:56:10;;;;;;;;;;;26.60;57.00;;;;;;5114008;27;1255;-70
2023/04/09 11:58:36;;;;;;;;;;;25.80;58.30;;;;;;5130892;27;1099;-70
2023/04/09 12:01:02;;;;;;;;;;;25.40;60.00;;;;;;5116073;27;993;-70
2023/04/09 12:03:29;;;;;;;;;;;25.70;56.90;;;;;;5109512;28;1250;-70
2023/04/09 12:05:55;;;;;;;;;;;25.80;58.70;;;;;;5111372;27;1223;-70
2023/04/09 12:08:23;;;;;;;;;;;25.10;59.40;;;;;;5110126;28;1338;-70
2023/04/09 12:10:50;;;;;;;;;;;25.30;60.10;;;;;;5110031;28;1910;-70
2023/04/09 12:13:16;;;;;;;;;;;25.70;57.80;;;;;;5107865;28;1192;-70
2023/04/09 12:15:42;;;;;;;;;;;25.90;57.70;;;;;;5114608;27;1270;-70
2023/04/09 12:18:09;;;;;;;;;;;26.40;57.40;;;;;;5109537;28;1254;-70
2023/04/09 12:20:38;;;;;;;;;;;26.80;55.30;;;;;;5091166;28;1219;-70
2023/04/09 12:23:05;;;;;;;;;;;26.30;55.20;;;;;;5110148;28;1183;-70
2023/04/09 12:25:34;;;;;;;;;;;25.20;55.60;;;;;;5073788;28;1113;-70
2023/04/09 12:28:00;;;;;;;;;;;25.10;57.30;;;;;;5108953;28;1219;-69
2023/04/09 12:30:26;;;;;;;;;;;25.40;56.70;;;;;;5109586;28;1967;-70
2023/04/09 12:32:52;;;;;;;;;;;26.20;56.40;;;;;;5109248;28;1104;-70
2023/04/09 12:35:18;;;;;;;;;;;26.50;53.90;;;;;;5109085;27;1155;-70
2023/04/09 12:37:44;;;;;;;;;;;26.50;54.40;;;;;;5109584;28;1206;-70
2023/04/09 12:40:12;;;;;;;;;;;26.70;54.40;;;;;;5131620;27;2040;-70
2023/04/09 12:42:43;;;;;;;;;;;26.10;52.70;;;;;;5109372;28;1152;-70
2023/04/09 12:45:10;;;;;;;;;;;26.10;54.90;;;;;;5109418;28;1093;-70
2023/04/09 12:47:35;;;;;;;;;;;26.50;54.70;;;;;;5109356;28;1143;-70
2023/04/09 12:50:03;;;;;;;;;;;26.20;53.20;;;;;;5109127;28;1918;-70
2023/04/09 12:52:29;;;;;;;;;;;25.70;54.90;;;;;;5109469;28;1167;-70
2023/04/09 12:54:54;;;;;;;;;;;25.50;55.60;;;;;;5108089;28;1080;-70
2023/04/09 12:57:20;;;;;;;;;;;26.00;55.20;;;;;;5110025;28;1242;-70
2023/04/09 12:59:46;;;;;;;;;;;26.80;54.60;;;;;;5097774;28;1213;-70
2023/04/09 13:02:11;;;;;;;;;;;27.50;52.30;;;;;;5096637;28;1119;-70
2023/04/09 13:04:37;;;;;;;;;;;;;;;;;;5109190;28;1325;-70
2023/04/09 13:07:03;;;;;;;;;;;28.00;51.40;;;;;;5121222;28;1405;-70
2023/04/09 13:09:29;;;;;;;;;;;28.30;51.60;;;;;;5108230;28;1358;-70
2023/04/09 13:11:54;;;;;;;;;;;27.80;50.80;;;;;;5090601;28;1957;-70
2023/04/09 13:14:20;;;;;;;;;;;26.70;51.80;;;;;;5130027;28;1119;-70
2023/04/09 13:16:46;;;;;;;;;;;26.20;52.40;;;;;;5129121;28;1143;-70
2023/04/09 13:19:12;;;;;;;;;;;25.50;53.50;;;;;;5128190;28;1127;-70
2023/04/09 13:21:38;;;;;;;;;;;25.20;54.00;;;;;;5109849;28;3444;-70
2023/04/09 13:24:04;;;;;;;;;;;24.40;54.60;;;;;;5107775;28;1179;-70
2023/04/09 13:26:30;;;;;;;;;;;23.90;55.90;;;;;;5109503;28;1100;-70
2023/04/09 13:28:57;;;;;;;;;;;23.80;56.90;;;;;;5108629;28;1140;-70
2023/04/09 13:31:23;;;;;;;;;;;24.50;55.50;;;;;;5089718;28;1980;-70
2023/04/09 13:33:49;;;;;;;;;;;25.10;54.40;;;;;;5109221;28;1171;-70
2023/04/09 13:36:14;;;;;;;;;;;25.70;53.80;;;;;;5109263;28;1076;-70
2023/04/09 13:38:40;;;;;;;;;;;25.60;51.30;;;;;;5111107;28;1199;-70
2023/04/09 13:41:06;;;;;;;;;;;25.80;53.20;;;;;;5128936;27;1084;-70
2023/04/09 13:43:32;;;;;;;;;;;26.10;52.50;;;;;;5094780;28;1723;-70
2023/04/09 13:45:57;;;;;;;;;;;26.60;51.00;;;;;;5111707;28;1097;-70
2023/04/09 13:48:24;;;;;;;;;;;26.70;50.10;;;;;;5113172;28;1191;-70
2023/04/09 13:50:49;;;;;;;;;;;26.60;50.50;;;;;;5113009;28;1901;-69
2023/04/09 13:53:15;;;;;;;;;;;26.50;50.10;;;;;;5111626;28;1132;-70
2023/04/09 13:55:42;;;;;;;;;;;26.70;49.90;;;;;;5110854;28;1290;-70
2023/04/09 13:58:08;;;;;;;;;;;27.20;50.30;;;;;;5110073;28;1192;-70
2023/04/09 14:00:34;;;;;;;;;;;27.40;48.70;;;;;;5112008;28;1081;-70
2023/04/09 14:03:01;;;;;;;;;;;27.60;48.80;;;;;;5113705;27;1034;-70
2023/04/09 14:05:28;;;;;;;;;;;27.60;49.50;;;;;;5111094;28;1227;-70
2023/04/09 14:07:53;;;;;;;;;;;27.70;48.70;;;;;;5093418;28;1640;-70
2023/04/09 14:10:19;;;;;;;;;;;27.70;48.40;;;;;;5112546;28;1913;-70
2023/04/09 14:12:45;;;;;;;;;;;27.80;48.30;;;;;;5092666;28;1129;-70
2023/04/09 14:15:11;;;;;;;;;;;27.70;48.80;;;;;;5112390;28;1104;-69
2023/04/09 14:17:36;;;;;;;;;;;27.90;48.30;;;;;;5106651;28;3721;-70
2023/04/09 14:20:02;;;;;;;;;;;28.10;47.30;;;;;;5109343;28;3761;-69
2023/04/09 14:22:28;;;;;;;;;;;27.90;47.20;;;;;;5088406;28;3639;-70
2023/04/09 14:24:54;;;;;;;;;;;27.50;47.50;;;;;;5125631;27;1138;-70
2023/04/09 14:27:20;;;;;;;;;;;27.80;47.80;;;;;;5132255;27;1103;-70
2023/04/09 14:29:45;;;;;;;;;;;28.20;48.00;;;;;;5132256;27;1913;-70
2023/04/09 14:32:11;;;;;;;;;;;28.30;47.30;;;;;;5105161;28;1213;-70
2023/04/09 14:34:37;;;;;;;;;;;28.30;46.10;;;;;;5111319;28;3626;-70